sensor_id;sensor_type;location;lat;lon;timestamp;P1;durP1;ratioP1;P2;durP2;ratioP2
70165;SDS011;57541;47.408;18.822;2023-02-28T00:00:08;15.68;;;8.82;;
70165;SDS011;57541;47.408;18.822;2023-02-28T00:00:41;17.92;;;9.60;;
70165;SDS011;57541;47.408;18.822;2023-02-28T00:01:14;17.98;;;9.35;;
70165;SDS011;57541;47.408;18.822;2023-02-28T00:01:46;16.00;;;9.43;;
70165;SDS011;57541;47.408;18.822;2023-02-28T00:02:18;18.38;;;9.40;;
70165;SDS011;57541;47.408;18.822;2023-02-28T00:02:50;19.67;;;9.05;;
70165;SDS011;57541;47.408;18.822;2023-02-28T00:03:21;15.38;;;9.40;;
70165;SDS011;57541;47.408;18.822;2023-02-28T00:03:53;17.85;;;9.10;;
70165;SDS011;57541;47.408;18.822;2023-02-28T00:04:25;16.65;;;9.20;;
70165;SDS011;57541;47.408;18.822;2023-02-28T00:04:56;16.30;;;9.13;;
70165;SDS011;57541;47.408;18.822;2023-02-28T00:05:32;19.00;;;9.55;;
70165;SDS011;57541;47.408;18.822;2023-02-28T00:06:04;16.65;;;9.57;;
70165;SDS011;57541;47.408;18.822;2023-02-28T00:06:37;17.52;;;9.50;;
70165;SDS011;57541;47.408;18.822;2023-02-28T00:07:09;16.90;;;9.52;;
70165;SDS011;57541;47.408;18.822;2023-02-28T00:07:41;18.40;;;10.25;;
70165;SDS011;57541;47.408;18.822;2023-02-28T00:08:16;17.88;;;9.63;;
70165;SDS011;57541;47.408;18.822;2023-02-28T00:08:47;19.27;;;10.00;;
70165;SDS011;57541;47.408;18.822;2023-02-28T00:09:19;17.02;;;9.60;;
70165;SDS011;57541;47.408;18.822;2023-02-28T00:09:51;17.83;;;9.50;;
70165;SDS011;57541;47.408;18.822;2023-02-28T00:10:24;18.55;;;9.85;;
70165;SDS011;57541;47.408;18.822;2023-02-28T00:11:04;17.42;;;8.77;;
70165;SDS011;57541;47.408;18.822;2023-02-28T00:11:37;18.10;;;9.80;;
70165;SDS011;57541;47.408;18.822;2023-02-28T00:12:09;16.95;;;9.27;;
70165;SDS011;57541;47.408;18.822;2023-02-28T00:12:41;17.58;;;9.43;;
70165;SDS011;57541;47.408;18.822;2023-02-28T00:13:13;18.73;;;9.55;;
70165;SDS011;57541;47.408;18.822;2023-02-28T00:13:46;16.08;;;8.90;;
70165;SDS011;57541;47.408;18.822;2023-02-28T00:14:18;16.20;;;9.55;;
70165;SDS011;57541;47.408;18.822;2023-02-28T00:14:49;17.58;;;8.77;;
70165;SDS011;57541;47.408;18.822;2023-02-28T00:15:22;16.33;;;9.45;;
70165;SDS011;57541;47.408;18.822;2023-02-28T00:16:01;16.77;;;9.18;;
70165;SDS011;57541;47.408;18.822;2023-02-28T00:16:37;18.13;;;9.02;;
70165;SDS011;57541;47.408;18.822;2023-02-28T00:17:09;16.17;;;8.65;;
70165;SDS011;57541;47.408;18.822;2023-02-28T00:17:41;19.42;;;9.32;;
70165;SDS011;57541;47.408;18.822;2023-02-28T00:18:13;16.20;;;9.20;;
70165;SDS011;57541;47.408;18.822;2023-02-28T00:18:44;19.13;;;9.02;;
70165;SDS011;57541;47.408;18.822;2023-02-28T00:19:16;18.95;;;9.38;;
70165;SDS011;57541;47.408;18.822;2023-02-28T00:19:48;18.75;;;10.15;;
70165;SDS011;57541;47.408;18.822;2023-02-28T00:20:20;19.75;;;9.02;;
70165;SDS011;57541;47.408;18.822;2023-02-28T00:20:52;18.00;;;9.30;;
70165;SDS011;57541;47.408;18.822;2023-02-28T00:21:24;18.27;;;9.65;;
70165;SDS011;57541;47.408;18.822;2023-02-28T00:21:56;17.85;;;9.35;;
70165;SDS011;57541;47.408;18.822;2023-02-28T00:22:27;16.10;;;9.15;;
70165;SDS011;57541;47.408;18.822;2023-02-28T00:22:59;17.63;;;9.38;;
70165;SDS011;57541;47.408;18.822;2023-02-28T00:23:31;18.05;;;9.55;;
70165;SDS011;57541;47.408;18.822;2023-02-28T00:24:03;15.25;;;9.30;;
70165;SDS011;57541;47.408;18.822;2023-02-28T00:24:35;19.42;;;9.90;;
70165;SDS011;57541;47.408;18.822;2023-02-28T00:25:07;15.50;;;9.20;;
70165;SDS011;57541;47.408;18.822;2023-02-28T00:25:40;17.40;;;9.02;;
70165;SDS011;57541;47.408;18.822;2023-02-28T00:26:12;17.00;;;9.32;;
70165;SDS011;57541;47.408;18.822;2023-02-28T00:26:44;19.30;;;9.88;;
70165;SDS011;57541;47.408;18.822;2023-02-28T00:27:15;17.10;;;9.32;;
70165;SDS011;57541;47.408;18.822;2023-02-28T00:27:47;17.13;;;9.80;;
70165;SDS011;57541;47.408;18.822;2023-02-28T00:28:20;16.98;;;9.25;;
70165;SDS011;57541;47.408;18.822;2023-02-28T00:28:52;16.42;;;9.40;;
70165;SDS011;57541;47.408;18.822;2023-02-28T00:29:24;18.73;;;10.80;;
70165;SDS011;57541;47.408;18.822;2023-02-28T00:29:56;22.90;;;11.05;;
70165;SDS011;57541;47.408;18.822;2023-02-28T00:30:27;24.35;;;12.05;;
70165;SDS011;57541;47.408;18.822;2023-02-28T00:30:59;28.60;;;13.57;;
70165;SDS011;57541;47.408;18.822;2023-02-28T00:31:31;25.75;;;13.18;;
70165;SDS011;57541;47.408;18.822;2023-02-28T00:32:03;27.23;;;13.75;;
70165;SDS011;57541;47.408;18.822;2023-02-28T00:32:36;28.02;;;12.85;;
70165;SDS011;57541;47.408;18.822;2023-02-28T00:33:08;27.02;;;13.25;;
70165;SDS011;57541;47.408;18.822;2023-02-28T00:33:40;25.30;;;12.93;;
70165;SDS011;57541;47.408;18.822;2023-02-28T00:34:11;23.85;;;12.32;;
70165;SDS011;57541;47.408;18.822;2023-02-28T00:34:43;25.17;;;12.88;;
70165;SDS011;57541;47.408;18.822;2023-02-28T00:35:15;25.58;;;12.57;;
70165;SDS011;57541;47.408;18.822;2023-02-28T00:35:47;25.73;;;12.80;;
70165;SDS011;57541;47.408;18.822;2023-02-28T00:36:20;24.67;;;12.10;;
70165;SDS011;57541;47.408;18.822;2023-02-28T00:36:51;24.95;;;12.90;;
70165;SDS011;57541;47.408;18.822;2023-02-28T00:37:23;23.27;;;12.90;;
70165;SDS011;57541;47.408;18.822;2023-02-28T00:37:55;27.65;;;13.30;;
70165;SDS011;57541;47.408;18.822;2023-02-28T00:38:26;23.77;;;11.80;;
70165;SDS011;57541;47.408;18.822;2023-02-28T00:38:58;25.02;;;12.55;;
70165;SDS011;57541;47.408;18.822;2023-02-28T00:39:30;26.70;;;12.55;;
70165;SDS011;57541;47.408;18.822;2023-02-28T00:40:02;24.60;;;12.20;;
70165;SDS011;57541;47.408;18.822;2023-02-28T00:40:36;24.42;;;12.07;;
70165;SDS011;57541;47.408;18.822;2023-02-28T00:41:08;23.75;;;12.20;;
70165;SDS011;57541;47.408;18.822;2023-02-28T00:41:40;23.50;;;11.77;;
70165;SDS011;57541;47.408;18.822;2023-02-28T00:42:12;21.52;;;11.70;;
70165;SDS011;57541;47.408;18.822;2023-02-28T00:42:43;20.42;;;10.90;;
70165;SDS011;57541;47.408;18.822;2023-02-28T00:43:15;22.45;;;11.48;;
70165;SDS011;57541;47.408;18.822;2023-02-28T00:43:47;26.10;;;12.23;;
70165;SDS011;57541;47.408;18.822;2023-02-28T00:44:18;22.63;;;11.82;;
70165;SDS011;57541;47.408;18.822;2023-02-28T00:44:52;23.02;;;11.65;;
70165;SDS011;57541;47.408;18.822;2023-02-28T00:45:24;25.08;;;12.45;;
70165;SDS011;57541;47.408;18.822;2023-02-28T00:45:56;24.40;;;12.00;;
70165;SDS011;57541;47.408;18.822;2023-02-28T00:46:27;25.70;;;13.77;;
70165;SDS011;57541;47.408;18.822;2023-02-28T00:46:59;30.63;;;14.65;;
70165;SDS011;57541;47.408;18.822;2023-02-28T00:47:31;29.73;;;14.30;;
70165;SDS011;57541;47.408;18.822;2023-02-28T00:48:03;31.42;;;15.18;;
70165;SDS011;57541;47.408;18.822;2023-02-28T00:48:35;31.50;;;14.57;;
70165;SDS011;57541;47.408;18.822;2023-02-28T00:49:07;32.92;;;14.50;;
70165;SDS011;57541;47.408;18.822;2023-02-28T00:49:39;32.13;;;14.38;;
70165;SDS011;57541;47.408;18.822;2023-02-28T00:50:10;29.40;;;14.55;;
70165;SDS011;57541;47.408;18.822;2023-02-28T00:50:42;28.90;;;13.57;;
70165;SDS011;57541;47.408;18.822;2023-02-28T00:51:14;27.27;;;14.07;;
70165;SDS011;57541;47.408;18.822;2023-02-28T00:51:46;28.45;;;13.93;;
70165;SDS011;57541;47.408;18.822;2023-02-28T00:52:18;28.90;;;13.65;;
70165;SDS011;57541;47.408;18.822;2023-02-28T00:52:49;28.00;;;13.65;;
70165;SDS011;57541;47.408;18.822;2023-02-28T00:53:21;29.30;;;13.90;;
70165;SDS011;57541;47.408;18.822;2023-02-28T00:53:53;30.83;;;13.70;;
70165;SDS011;57541;47.408;18.822;2023-02-28T00:54:25;27.17;;;13.98;;
70165;SDS011;57541;47.408;18.822;2023-02-28T00:54:56;28.23;;;14.45;;
70165;SDS011;57541;47.408;18.822;2023-02-28T00:55:28;24.17;;;12.85;;
70165;SDS011;57541;47.408;18.822;2023-02-28T00:56:00;29.63;;;14.02;;
70165;SDS011;57541;47.408;18.822;2023-02-28T00:56:32;25.60;;;12.50;;
70165;SDS011;57541;47.408;18.822;2023-02-28T00:57:04;25.20;;;12.93;;
70165;SDS011;57541;47.408;18.822;2023-02-28T00:57:36;27.83;;;13.60;;
70165;SDS011;57541;47.408;18.822;2023-02-28T00:58:07;25.73;;;13.13;;
70165;SDS011;57541;47.408;18.822;2023-02-28T00:58:39;28.55;;;13.02;;
70165;SDS011;57541;47.408;18.822;2023-02-28T00:59:12;27.90;;;13.93;;
70165;SDS011;57541;47.408;18.822;2023-02-28T00:59:44;30.52;;;13.75;;
70165;SDS011;57541;47.408;18.822;2023-02-28T01:00:16;28.50;;;13.70;;
70165;SDS011;57541;47.408;18.822;2023-02-28T01:00:48;24.48;;;13.57;;
70165;SDS011;57541;47.408;18.822;2023-02-28T01:01:20;27.10;;;13.57;;
70165;SDS011;57541;47.408;18.822;2023-02-28T01:01:52;24.60;;;12.77;;
70165;SDS011;57541;47.408;18.822;2023-02-28T01:02:24;26.30;;;12.93;;
70165;SDS011;57541;47.408;18.822;2023-02-28T01:02:55;24.65;;;12.68;;
70165;SDS011;57541;47.408;18.822;2023-02-28T01:03:27;27.23;;;13.20;;
70165;SDS011;57541;47.408;18.822;2023-02-28T01:03:59;28.33;;;13.43;;
70165;SDS011;57541;47.408;18.822;2023-02-28T01:04:31;23.58;;;13.02;;
70165;SDS011;57541;47.408;18.822;2023-02-28T01:05:03;21.25;;;11.38;;
70165;SDS011;57541;47.408;18.822;2023-02-28T01:05:35;21.67;;;11.52;;
70165;SDS011;57541;47.408;18.822;2023-02-28T01:06:07;20.52;;;10.40;;
70165;SDS011;57541;47.408;18.822;2023-02-28T01:06:38;22.77;;;11.95;;
70165;SDS011;57541;47.408;18.822;2023-02-28T01:07:10;20.98;;;11.30;;
70165;SDS011;57541;47.408;18.822;2023-02-28T01:07:42;19.70;;;11.18;;
70165;SDS011;57541;47.408;18.822;2023-02-28T01:08:14;22.80;;;12.45;;
70165;SDS011;57541;47.408;18.822;2023-02-28T01:08:45;24.13;;;12.73;;
70165;SDS011;57541;47.408;18.822;2023-02-28T01:09:17;22.75;;;11.57;;
70165;SDS011;57541;47.408;18.822;2023-02-28T01:09:49;21.60;;;12.23;;
70165;SDS011;57541;47.408;18.822;2023-02-28T01:10:21;22.55;;;12.32;;
70165;SDS011;57541;47.408;18.822;2023-02-28T01:10:53;22.67;;;12.43;;
70165;SDS011;57541;47.408;18.822;2023-02-28T01:11:25;21.10;;;12.02;;
70165;SDS011;57541;47.408;18.822;2023-02-28T01:11:57;25.10;;;12.80;;
70165;SDS011;57541;47.408;18.822;2023-02-28T01:12:29;20.17;;;12.13;;
70165;SDS011;57541;47.408;18.822;2023-02-28T01:13:01;22.27;;;11.95;;
70165;SDS011;57541;47.408;18.822;2023-02-28T01:13:33;21.55;;;12.93;;
70165;SDS011;57541;47.408;18.822;2023-02-28T01:14:05;21.50;;;11.82;;
70165;SDS011;57541;47.408;18.822;2023-02-28T01:14:37;21.20;;;11.82;;
70165;SDS011;57541;47.408;18.822;2023-02-28T01:15:10;19.38;;;11.55;;
70165;SDS011;57541;47.408;18.822;2023-02-28T01:15:46;19.02;;;10.68;;
70165;SDS011;57541;47.408;18.822;2023-02-28T01:16:22;18.35;;;10.70;;
70165;SDS011;57541;47.408;18.822;2023-02-28T01:16:54;18.83;;;9.90;;
70165;SDS011;57541;47.408;18.822;2023-02-28T01:17:26;19.70;;;11.20;;
70165;SDS011;57541;47.408;18.822;2023-02-28T01:17:58;19.10;;;10.32;;
70165;SDS011;57541;47.408;18.822;2023-02-28T01:18:29;17.80;;;10.30;;
70165;SDS011;57541;47.408;18.822;2023-02-28T01:19:01;17.92;;;9.98;;
70165;SDS011;57541;47.408;18.822;2023-02-28T01:19:33;17.08;;;9.55;;
70165;SDS011;57541;47.408;18.822;2023-02-28T01:20:05;16.88;;;10.00;;
70165;SDS011;57541;47.408;18.822;2023-02-28T01:20:38;19.90;;;10.82;;
70165;SDS011;57541;47.408;18.822;2023-02-28T01:21:11;21.52;;;11.68;;
70165;SDS011;57541;47.408;18.822;2023-02-28T01:21:44;21.92;;;11.48;;
70165;SDS011;57541;47.408;18.822;2023-02-28T01:22:16;18.98;;;10.23;;
70165;SDS011;57541;47.408;18.822;2023-02-28T01:22:47;17.88;;;10.07;;
70165;SDS011;57541;47.408;18.822;2023-02-28T01:23:19;18.33;;;9.32;;
70165;SDS011;57541;47.408;18.822;2023-02-28T01:23:55;19.27;;;9.75;;
70165;SDS011;57541;47.408;18.822;2023-02-28T01:24:29;18.23;;;9.52;;
70165;SDS011;57541;47.408;18.822;2023-02-28T01:25:00;18.05;;;10.18;;
70165;SDS011;57541;47.408;18.822;2023-02-28T01:25:34;17.50;;;10.02;;
70165;SDS011;57541;47.408;18.822;2023-02-28T01:26:07;17.85;;;9.52;;
70165;SDS011;57541;47.408;18.822;2023-02-28T01:26:41;16.92;;;9.35;;
70165;SDS011;57541;47.408;18.822;2023-02-28T01:27:12;17.63;;;9.80;;
70165;SDS011;57541;47.408;18.822;2023-02-28T01:27:44;17.58;;;9.63;;
70165;SDS011;57541;47.408;18.822;2023-02-28T01:28:16;17.45;;;9.93;;
70165;SDS011;57541;47.408;18.822;2023-02-28T01:28:48;17.42;;;9.50;;
70165;SDS011;57541;47.408;18.822;2023-02-28T01:29:21;19.02;;;10.35;;
70165;SDS011;57541;47.408;18.822;2023-02-28T01:29:53;16.60;;;10.00;;
70165;SDS011;57541;47.408;18.822;2023-02-28T01:30:25;17.40;;;9.85;;
70165;SDS011;57541;47.408;18.822;2023-02-28T01:30:56;18.35;;;9.77;;
70165;SDS011;57541;47.408;18.822;2023-02-28T01:31:28;16.35;;;9.25;;
70165;SDS011;57541;47.408;18.822;2023-02-28T01:32:00;16.83;;;9.23;;
70165;SDS011;57541;47.408;18.822;2023-02-28T01:32:32;17.23;;;9.48;;
70165;SDS011;57541;47.408;18.822;2023-02-28T01:33:04;17.80;;;9.82;;
70165;SDS011;57541;47.408;18.822;2023-02-28T01:33:36;15.20;;;9.73;;
70165;SDS011;57541;47.408;18.822;2023-02-28T01:34:08;18.35;;;9.63;;
70165;SDS011;57541;47.408;18.822;2023-02-28T01:34:40;19.90;;;10.63;;
70165;SDS011;57541;47.408;18.822;2023-02-28T01:35:12;17.55;;;9.95;;
70165;SDS011;57541;47.408;18.822;2023-02-28T01:35:43;17.38;;;10.20;;
70165;SDS011;57541;47.408;18.822;2023-02-28T01:36:19;17.92;;;9.48;;
70165;SDS011;57541;47.408;18.822;2023-02-28T01:36:53;16.70;;;9.18;;
70165;SDS011;57541;47.408;18.822;2023-02-28T01:37:25;14.60;;;8.75;;
70165;SDS011;57541;47.408;18.822;2023-02-28T01:37:56;18.17;;;8.93;;
70165;SDS011;57541;47.408;18.822;2023-02-28T01:38:42;16.88;;;9.10;;
70165;SDS011;57541;47.408;18.822;2023-02-28T01:39:14;15.52;;;8.95;;
70165;SDS011;57541;47.408;18.822;2023-02-28T01:39:46;17.73;;;9.05;;
70165;SDS011;57541;47.408;18.822;2023-02-28T01:40:18;17.08;;;8.95;;
70165;SDS011;57541;47.408;18.822;2023-02-28T01:40:50;18.00;;;9.35;;
70165;SDS011;57541;47.408;18.822;2023-02-28T01:41:25;17.75;;;9.63;;
70165;SDS011;57541;47.408;18.822;2023-02-28T01:41:59;17.13;;;9.27;;
70165;SDS011;57541;47.408;18.822;2023-02-28T01:42:31;17.75;;;9.10;;
70165;SDS011;57541;47.408;18.822;2023-02-28T01:43:04;19.85;;;10.05;;
70165;SDS011;57541;47.408;18.822;2023-02-28T01:45:27;19.48;;;11.13;;
70165;SDS011;57541;47.408;18.822;2023-02-28T01:46:01;18.10;;;10.00;;
70165;SDS011;57541;47.408;18.822;2023-02-28T01:46:34;16.20;;;10.15;;
70165;SDS011;57541;47.408;18.822;2023-02-28T01:47:06;20.52;;;9.70;;
70165;SDS011;57541;47.408;18.822;2023-02-28T01:47:39;17.42;;;9.52;;
70165;SDS011;57541;47.408;18.822;2023-02-28T01:48:13;17.73;;;9.70;;
70165;SDS011;57541;47.408;18.822;2023-02-28T01:48:50;17.58;;;9.52;;
70165;SDS011;57541;47.408;18.822;2023-02-28T01:49:26;18.35;;;9.45;;
70165;SDS011;57541;47.408;18.822;2023-02-28T01:49:57;18.70;;;9.60;;
70165;SDS011;57541;47.408;18.822;2023-02-28T01:50:33;18.73;;;9.32;;
70165;SDS011;57541;47.408;18.822;2023-02-28T01:51:10;17.88;;;9.13;;
70165;SDS011;57541;47.408;18.822;2023-02-28T01:51:49;16.25;;;8.93;;
70165;SDS011;57541;47.408;18.822;2023-02-28T01:52:24;17.60;;;9.70;;
70165;SDS011;57541;47.408;18.822;2023-02-28T01:52:56;17.33;;;10.15;;
70165;SDS011;57541;47.408;18.822;2023-02-28T01:53:32;18.15;;;10.48;;
70165;SDS011;57541;47.408;18.822;2023-02-28T01:54:09;16.70;;;10.02;;
70165;SDS011;57541;47.408;18.822;2023-02-28T01:54:45;16.83;;;8.93;;
70165;SDS011;57541;47.408;18.822;2023-02-28T01:55:22;19.45;;;10.00;;
70165;SDS011;57541;47.408;18.822;2023-02-28T01:55:59;16.60;;;9.43;;
70165;SDS011;57541;47.408;18.822;2023-02-28T01:56:32;17.70;;;9.68;;
70165;SDS011;57541;47.408;18.822;2023-02-28T01:57:09;16.15;;;9.02;;
70165;SDS011;57541;47.408;18.822;2023-02-28T01:57:49;18.83;;;8.80;;
70165;SDS011;57541;47.408;18.822;2023-02-28T01:58:23;16.35;;;9.70;;
70165;SDS011;57541;47.408;18.822;2023-02-28T01:58:55;18.25;;;9.40;;
70165;SDS011;57541;47.408;18.822;2023-02-28T01:59:35;18.30;;;10.07;;
70165;SDS011;57541;47.408;18.822;2023-02-28T02:00:23;16.70;;;9.00;;
70165;SDS011;57541;47.408;18.822;2023-02-28T02:00:58;16.02;;;8.73;;
70165;SDS011;57541;47.408;18.822;2023-02-28T02:01:29;18.95;;;10.00;;
70165;SDS011;57541;47.408;18.822;2023-02-28T02:02:02;15.38;;;8.73;;
70165;SDS011;57541;47.408;18.822;2023-02-28T02:02:35;16.35;;;9.32;;
70165;SDS011;57541;47.408;18.822;2023-02-28T02:03:09;16.77;;;9.40;;
70165;SDS011;57541;47.408;18.822;2023-02-28T02:03:51;16.58;;;9.18;;
70165;SDS011;57541;47.408;18.822;2023-02-28T02:04:31;17.33;;;9.18;;
70165;SDS011;57541;47.408;18.822;2023-02-28T02:05:10;17.95;;;9.35;;
70165;SDS011;57541;47.408;18.822;2023-02-28T02:05:45;16.60;;;8.60;;
70165;SDS011;57541;47.408;18.822;2023-02-28T02:06:20;16.35;;;8.80;;
70165;SDS011;57541;47.408;18.822;2023-02-28T02:06:56;18.08;;;9.40;;
70165;SDS011;57541;47.408;18.822;2023-02-28T02:07:31;15.57;;;9.00;;
70165;SDS011;57541;47.408;18.822;2023-02-28T02:08:08;18.00;;;8.55;;
70165;SDS011;57541;47.408;18.822;2023-02-28T02:08:43;18.27;;;9.10;;
70165;SDS011;57541;47.408;18.822;2023-02-28T02:09:14;17.25;;;9.32;;
70165;SDS011;57541;47.408;18.822;2023-02-28T02:09:46;17.35;;;8.65;;
70165;SDS011;57541;47.408;18.822;2023-02-28T02:10:19;19.00;;;8.82;;
70165;SDS011;57541;47.408;18.822;2023-02-28T02:10:57;17.63;;;9.68;;
70165;SDS011;57541;47.408;18.822;2023-02-28T02:11:31;16.10;;;8.57;;
70165;SDS011;57541;47.408;18.822;2023-02-28T02:12:09;19.25;;;9.98;;
70165;SDS011;57541;47.408;18.822;2023-02-28T02:13:17;19.05;;;9.27;;
70165;SDS011;57541;47.408;18.822;2023-02-28T02:14:30;17.95;;;9.25;;
70165;SDS011;57541;47.408;18.822;2023-02-28T02:15:16;15.48;;;8.82;;
70165;SDS011;57541;47.408;18.822;2023-02-28T02:16:10;19.38;;;9.93;;
70165;SDS011;57541;47.408;18.822;2023-02-28T02:17:52;18.20;;;10.15;;
70165;SDS011;57541;47.408;18.822;2023-02-28T02:20:06;18.88;;;10.32;;
70165;SDS011;57541;47.408;18.822;2023-02-28T02:22:35;19.10;;;10.23;;
70165;SDS011;57541;47.408;18.822;2023-02-28T02:24:18;19.52;;;9.57;;
70165;SDS011;57541;47.408;18.822;2023-02-28T02:26:25;18.42;;;10.18;;
70165;SDS011;57541;47.408;18.822;2023-02-28T02:33:43;19.13;;;10.38;;
70165;SDS011;57541;47.408;18.822;2023-02-28T02:35:27;18.23;;;10.48;;
70165;SDS011;57541;47.408;18.822;2023-02-28T02:38:46;18.42;;;10.13;;
70165;SDS011;57541;47.408;18.822;2023-02-28T02:39:31;21.35;;;10.93;;
70165;SDS011;57541;47.408;18.822;2023-02-28T02:42:03;20.55;;;10.40;;
70165;SDS011;57541;47.408;18.822;2023-02-28T02:44:31;18.13;;;10.52;;
70165;SDS011;57541;47.408;18.822;2023-02-28T02:45:52;19.45;;;10.73;;
70165;SDS011;57541;47.408;18.822;2023-02-28T02:46:41;19.42;;;10.52;;
70165;SDS011;57541;47.408;18.822;2023-02-28T02:47:15;19.42;;;10.60;;
70165;SDS011;57541;47.408;18.822;2023-02-28T02:47:50;20.05;;;11.05;;
70165;SDS011;57541;47.408;18.822;2023-02-28T02:48:26;18.08;;;10.88;;
70165;SDS011;57541;47.408;18.822;2023-02-28T02:49:03;21.35;;;11.27;;
70165;SDS011;57541;47.408;18.822;2023-02-28T02:49:39;19.85;;;11.18;;
70165;SDS011;57541;47.408;18.822;2023-02-28T02:50:20;18.27;;;10.68;;
70165;SDS011;57541;47.408;18.822;2023-02-28T02:50:58;20.73;;;10.90;;
70165;SDS011;57541;47.408;18.822;2023-02-28T02:51:33;21.17;;;10.95;;
70165;SDS011;57541;47.408;18.822;2023-02-28T02:52:07;19.95;;;11.45;;
70165;SDS011;57541;47.408;18.822;2023-02-28T02:52:42;21.70;;;12.50;;
70165;SDS011;57541;47.408;18.822;2023-02-28T02:53:21;21.65;;;11.75;;
70165;SDS011;57541;47.408;18.822;2023-02-28T02:54:04;19.23;;;12.00;;
70165;SDS011;57541;47.408;18.822;2023-02-28T02:54:43;20.17;;;11.75;;
70165;SDS011;57541;47.408;18.822;2023-02-28T02:55:18;20.88;;;11.68;;
70165;SDS011;57541;47.408;18.822;2023-02-28T02:55:53;21.30;;;11.90;;
70165;SDS011;57541;47.408;18.822;2023-02-28T02:56:26;22.08;;;12.25;;
70165;SDS011;57541;47.408;18.822;2023-02-28T02:57:01;19.88;;;12.27;;
70165;SDS011;57541;47.408;18.822;2023-02-28T02:57:42;21.83;;;11.55;;
70165;SDS011;57541;47.408;18.822;2023-02-28T02:58:22;19.10;;;11.80;;
70165;SDS011;57541;47.408;18.822;2023-02-28T02:59:00;21.73;;;11.70;;
70165;SDS011;57541;47.408;18.822;2023-02-28T02:59:35;21.88;;;12.07;;
70165;SDS011;57541;47.408;18.822;2023-02-28T03:00:10;22.65;;;12.43;;
70165;SDS011;57541;47.408;18.822;2023-02-28T03:00:45;21.40;;;12.20;;
70165;SDS011;57541;47.408;18.822;2023-02-28T03:01:22;20.95;;;11.55;;
70165;SDS011;57541;47.408;18.822;2023-02-28T03:02:02;22.92;;;12.75;;
70165;SDS011;57541;47.408;18.822;2023-02-28T03:02:36;23.00;;;12.57;;
70165;SDS011;57541;47.408;18.822;2023-02-28T03:03:10;21.92;;;12.70;;
70165;SDS011;57541;47.408;18.822;2023-02-28T03:03:43;21.85;;;11.77;;
70165;SDS011;57541;47.408;18.822;2023-02-28T03:04:17;22.75;;;13.00;;
70165;SDS011;57541;47.408;18.822;2023-02-28T03:04:52;19.58;;;11.50;;
70165;SDS011;57541;47.408;18.822;2023-02-28T03:06:20;20.38;;;11.30;;
70165;SDS011;57541;47.408;18.822;2023-02-28T03:06:52;21.75;;;12.73;;
70165;SDS011;57541;47.408;18.822;2023-02-28T03:07:26;21.67;;;12.18;;
70165;SDS011;57541;47.408;18.822;2023-02-28T03:07:58;19.83;;;11.60;;
70165;SDS011;57541;47.408;18.822;2023-02-28T03:08:33;24.33;;;12.30;;
70165;SDS011;57541;47.408;18.822;2023-02-28T03:09:07;21.55;;;12.45;;
70165;SDS011;57541;47.408;18.822;2023-02-28T03:09:38;22.20;;;12.10;;
70165;SDS011;57541;47.408;18.822;2023-02-28T03:10:30;21.40;;;12.27;;
70165;SDS011;57541;47.408;18.822;2023-02-28T03:11:05;21.60;;;11.77;;
70165;SDS011;57541;47.408;18.822;2023-02-28T03:11:40;21.27;;;11.77;;
70165;SDS011;57541;47.408;18.822;2023-02-28T03:12:13;21.70;;;12.43;;
70165;SDS011;57541;47.408;18.822;2023-02-28T03:12:48;21.10;;;12.07;;
70165;SDS011;57541;47.408;18.822;2023-02-28T03:14:10;20.38;;;11.80;;
70165;SDS011;57541;47.408;18.822;2023-02-28T03:14:55;20.42;;;11.60;;
70165;SDS011;57541;47.408;18.822;2023-02-28T03:15:41;20.63;;;11.45;;
70165;SDS011;57541;47.408;18.822;2023-02-28T03:18:45;19.75;;;10.52;;
70165;SDS011;57541;47.408;18.822;2023-02-28T03:22:27;20.67;;;11.25;;
70165;SDS011;57541;47.408;18.822;2023-02-28T03:23:14;20.25;;;10.70;;
70165;SDS011;57541;47.408;18.822;2023-02-28T03:26:19;20.55;;;11.23;;
70165;SDS011;57541;47.408;18.822;2023-02-28T03:26:58;20.77;;;11.68;;
70165;SDS011;57541;47.408;18.822;2023-02-28T03:27:55;21.95;;;11.18;;
70165;SDS011;57541;47.408;18.822;2023-02-28T03:28:37;19.48;;;11.00;;
70165;SDS011;57541;47.408;18.822;2023-02-28T03:29:27;19.58;;;10.90;;
70165;SDS011;57541;47.408;18.822;2023-02-28T03:30:17;20.52;;;10.82;;
70165;SDS011;57541;47.408;18.822;2023-02-28T03:31:32;19.15;;;10.02;;
70165;SDS011;57541;47.408;18.822;2023-02-28T03:32:25;20.58;;;10.75;;
70165;SDS011;57541;47.408;18.822;2023-02-28T03:33:03;20.63;;;10.60;;
70165;SDS011;57541;47.408;18.822;2023-02-28T03:33:50;20.33;;;10.88;;
70165;SDS011;57541;47.408;18.822;2023-02-28T03:34:29;21.45;;;10.70;;
70165;SDS011;57541;47.408;18.822;2023-02-28T03:35:24;22.30;;;10.55;;
70165;SDS011;57541;47.408;18.822;2023-02-28T03:36:06;18.55;;;9.73;;
70165;SDS011;57541;47.408;18.822;2023-02-28T03:36:39;18.23;;;10.02;;
70165;SDS011;57541;47.408;18.822;2023-02-28T03:37:18;18.40;;;9.77;;
70165;SDS011;57541;47.408;18.822;2023-02-28T03:37:55;18.33;;;10.13;;
70165;SDS011;57541;47.408;18.822;2023-02-28T03:39:42;18.65;;;9.68;;
70165;SDS011;57541;47.408;18.822;2023-02-28T03:40:20;19.20;;;9.82;;
70165;SDS011;57541;47.408;18.822;2023-02-28T03:40:59;18.05;;;9.80;;
70165;SDS011;57541;47.408;18.822;2023-02-28T03:41:42;18.80;;;9.55;;
70165;SDS011;57541;47.408;18.822;2023-02-28T03:42:18;20.92;;;10.68;;
70165;SDS011;57541;47.408;18.822;2023-02-28T03:42:54;18.65;;;9.85;;
70165;SDS011;57541;47.408;18.822;2023-02-28T03:43:31;19.02;;;10.50;;
70165;SDS011;57541;47.408;18.822;2023-02-28T03:44:09;20.13;;;11.07;;
70165;SDS011;57541;47.408;18.822;2023-02-28T03:45:00;22.77;;;11.10;;
70165;SDS011;57541;47.408;18.822;2023-02-28T03:45:54;22.55;;;10.90;;
70165;SDS011;57541;47.408;18.822;2023-02-28T03:46:28;21.38;;;11.00;;
70165;SDS011;57541;47.408;18.822;2023-02-28T03:47:05;19.08;;;10.65;;
70165;SDS011;57541;47.408;18.822;2023-02-28T03:48:13;21.98;;;11.40;;
70165;SDS011;57541;47.408;18.822;2023-02-28T03:48:51;19.83;;;11.13;;
70165;SDS011;57541;47.408;18.822;2023-02-28T03:49:35;22.17;;;11.40;;
70165;SDS011;57541;47.408;18.822;2023-02-28T03:50:16;20.17;;;10.88;;
70165;SDS011;57541;47.408;18.822;2023-02-28T03:50:56;22.65;;;11.80;;
70165;SDS011;57541;47.408;18.822;2023-02-28T03:51:30;22.90;;;11.43;;
70165;SDS011;57541;47.408;18.822;2023-02-28T03:52:04;22.13;;;11.55;;
70165;SDS011;57541;47.408;18.822;2023-02-28T03:52:39;22.60;;;11.95;;
70165;SDS011;57541;47.408;18.822;2023-02-28T03:53:21;21.75;;;11.85;;
70165;SDS011;57541;47.408;18.822;2023-02-28T03:53:58;20.75;;;11.48;;
70165;SDS011;57541;47.408;18.822;2023-02-28T03:54:45;21.33;;;11.18;;
70165;SDS011;57541;47.408;18.822;2023-02-28T03:55:21;21.48;;;11.35;;
70165;SDS011;57541;47.408;18.822;2023-02-28T03:55:58;20.65;;;11.40;;
70165;SDS011;57541;47.408;18.822;2023-02-28T03:56:36;21.55;;;11.15;;
70165;SDS011;57541;47.408;18.822;2023-02-28T03:58:11;20.60;;;10.82;;
70165;SDS011;57541;47.408;18.822;2023-02-28T03:59:38;21.13;;;10.70;;
70165;SDS011;57541;47.408;18.822;2023-02-28T04:00:27;19.23;;;11.13;;